sensor_id;sensor_type;location;lat;lon;timestamp;temperature;humidity
8226;DHT22;4154;48.810;9.012;2023-03-15T00:01:18;2.60;99.30
8226;DHT22;4154;48.810;9.012;2023-03-15T00:06:14;2.60;99.20
8226;DHT22;4154;48.810;9.012;2023-03-15T00:08:40;2.60;99.20
8226;DHT22;4154;48.810;9.012;2023-03-15T00:11:06;2.60;99.20
8226;DHT22;4154;48.810;9.012;2023-03-15T00:16:00;2.60;99.00
8226;DHT22;4154;48.810;9.012;2023-03-15T00:25:48;2.80;99.30
8226;DHT22;4154;48.810;9.012;2023-03-15T00:30:41;2.80;99.90
8226;DHT22;4154;48.810;9.012;2023-03-15T00:33:10;2.90;99.20
8226;DHT22;4154;48.810;9.012;2023-03-15T00:35:43;2.90;99.20
8226;DHT22;4154;48.810;9.012;2023-03-15T00:38:10;2.90;98.50
8226;DHT22;4154;48.810;9.012;2023-03-15T00:40:36;2.90;98.60
8226;DHT22;4154;48.810;9.012;2023-03-15T00:45:37;2.90;98.50
8226;DHT22;4154;48.810;9.012;2023-03-15T00:48:04;2.80;98.60
8226;DHT22;4154;48.810;9.012;2023-03-15T00:52:56;2.80;98.30
8226;DHT22;4154;48.810;9.012;2023-03-15T00:55:29;2.80;98.60
8226;DHT22;4154;48.810;9.012;2023-03-15T00:57:55;2.70;98.50
8226;DHT22;4154;48.810;9.012;2023-03-15T01:00:21;2.70;98.50
8226;DHT22;4154;48.810;9.012;2023-03-15T01:02:50;2.60;98.40
8226;DHT22;4154;48.810;9.012;2023-03-15T01:07:43;2.60;98.40
8226;DHT22;4154;48.810;9.012;2023-03-15T01:10:13;2.60;98.60
8226;DHT22;4154;48.810;9.012;2023-03-15T01:12:40;2.60;98.70
8226;DHT22;4154;48.810;9.012;2023-03-15T01:15:07;2.80;99.90
8226;DHT22;4154;48.810;9.012;2023-03-15T01:22:29;2.70;98.40
8226;DHT22;4154;48.810;9.012;2023-03-15T01:27:21;2.60;98.20
8226;DHT22;4154;48.810;9.012;2023-03-15T01:29:47;2.60;98.30
8226;DHT22;4154;48.810;9.012;2023-03-15T01:32:13;2.60;98.40
8226;DHT22;4154;48.810;9.012;2023-03-15T01:34:38;2.60;98.20
8226;DHT22;4154;48.810;9.012;2023-03-15T01:39:39;2.50;97.90
8226;DHT22;4154;48.810;9.012;2023-03-15T01:44:54;2.30;97.80
8226;DHT22;4154;48.810;9.012;2023-03-15T01:49:55;2.30;97.80
8226;DHT22;4154;48.810;9.012;2023-03-15T01:52:30;2.20;97.60
8226;DHT22;4154;48.810;9.012;2023-03-15T01:55:10;2.20;97.80
8226;DHT22;4154;48.810;9.012;2023-03-15T01:57:48;2.20;97.80
8226;DHT22;4154;48.810;9.012;2023-03-15T02:02:52;2.20;97.50
8226;DHT22;4154;48.810;9.012;2023-03-15T02:05:28;2.20;97.70
8226;DHT22;4154;48.810;9.012;2023-03-15T02:10:42;2.30;97.40
8226;DHT22;4154;48.810;9.012;2023-03-15T02:13:12;2.40;97.50
8226;DHT22;4154;48.810;9.012;2023-03-15T02:24:13;2.50;97.40
8226;DHT22;4154;48.810;9.012;2023-03-15T02:29:25;2.50;97.50
8226;DHT22;4154;48.810;9.012;2023-03-15T02:31:53;2.50;97.60
8226;DHT22;4154;48.810;9.012;2023-03-15T02:36:50;2.50;97.50
8226;DHT22;4154;48.810;9.012;2023-03-15T02:39:20;2.50;97.70
8226;DHT22;4154;48.810;9.012;2023-03-15T02:41:50;2.50;97.60
8226;DHT22;4154;48.810;9.012;2023-03-15T02:44:26;2.50;97.20
8226;DHT22;4154;48.810;9.012;2023-03-15T02:46:58;2.80;99.90
8226;DHT22;4154;48.810;9.012;2023-03-15T02:49:30;2.50;97.20
8226;DHT22;4154;48.810;9.012;2023-03-15T02:54:26;2.40;96.80
8226;DHT22;4154;48.810;9.012;2023-03-15T02:59:18;2.40;96.80
8226;DHT22;4154;48.810;9.012;2023-03-15T03:01:43;2.40;97.00
8226;DHT22;4154;48.810;9.012;2023-03-15T03:04:10;2.30;97.10
8226;DHT22;4154;48.810;9.012;2023-03-15T03:06:35;2.40;97.10
8226;DHT22;4154;48.810;9.012;2023-03-15T03:09:02;2.40;97.10
8226;DHT22;4154;48.810;9.012;2023-03-15T03:13:54;2.30;96.70
8226;DHT22;4154;48.810;9.012;2023-03-15T03:18:47;2.40;96.80
8226;DHT22;4154;48.810;9.012;2023-03-15T03:26:13;2.30;96.70
8226;DHT22;4154;48.810;9.012;2023-03-15T03:28:42;2.30;96.80
8226;DHT22;4154;48.810;9.012;2023-03-15T03:31:21;2.30;96.90
8226;DHT22;4154;48.810;9.012;2023-03-15T03:36:15;2.30;96.70
8226;DHT22;4154;48.810;9.012;2023-03-15T03:38:43;2.30;96.60
8226;DHT22;4154;48.810;9.012;2023-03-15T03:41:11;2.30;96.70
8226;DHT22;4154;48.810;9.012;2023-03-15T03:43:38;2.30;96.80
8226;DHT22;4154;48.810;9.012;2023-03-15T03:46:05;2.30;96.80
8226;DHT22;4154;48.810;9.012;2023-03-15T03:48:30;2.30;96.80
8226;DHT22;4154;48.810;9.012;2023-03-15T03:50:57;2.20;96.80
8226;DHT22;4154;48.810;9.012;2023-03-15T03:55:49;2.20;96.60
8226;DHT22;4154;48.810;9.012;2023-03-15T03:58:15;2.20;96.90
8226;DHT22;4154;48.810;9.012;2023-03-15T04:00:41;2.20;96.80
8226;DHT22;4154;48.810;9.012;2023-03-15T04:03:07;2.20;96.70
8226;DHT22;4154;48.810;9.012;2023-03-15T04:11:07;2.10;96.70
8226;DHT22;4154;48.810;9.012;2023-03-15T04:20:54;2.00;96.60
8226;DHT22;4154;48.810;9.012;2023-03-15T04:23:21;2.10;96.70
8226;DHT22;4154;48.810;9.012;2023-03-15T04:25:48;2.10;96.60
8226;DHT22;4154;48.810;9.012;2023-03-15T04:28:18;2.00;96.70
8226;DHT22;4154;48.810;9.012;2023-03-15T04:30:44;2.10;96.80
8226;DHT22;4154;48.810;9.012;2023-03-15T04:33:12;2.10;96.60
8226;DHT22;4154;48.810;9.012;2023-03-15T04:38:04;2.00;96.60
8226;DHT22;4154;48.810;9.012;2023-03-15T04:40:31;1.90;96.80
8226;DHT22;4154;48.810;9.012;2023-03-15T04:43:00;1.90;96.50
8226;DHT22;4154;48.810;9.012;2023-03-15T04:45:29;1.90;96.70
8226;DHT22;4154;48.810;9.012;2023-03-15T04:47:56;1.90;96.70
8226;DHT22;4154;48.810;9.012;2023-03-15T04:50:23;1.90;96.40
8226;DHT22;4154;48.810;9.012;2023-03-15T04:55:15;1.90;96.30
8226;DHT22;4154;48.810;9.012;2023-03-15T04:57:41;1.90;96.60
8226;DHT22;4154;48.810;9.012;2023-03-15T05:00:08;1.90;96.60
8226;DHT22;4154;48.810;9.012;2023-03-15T05:05:06;1.80;96.30
8226;DHT22;4154;48.810;9.012;2023-03-15T05:07:37;1.80;96.50
8226;DHT22;4154;48.810;9.012;2023-03-15T05:10:05;1.90;96.40
8226;DHT22;4154;48.810;9.012;2023-03-15T05:14:58;1.80;96.30
8226;DHT22;4154;48.810;9.012;2023-03-15T05:17:24;1.70;96.40
8226;DHT22;4154;48.810;9.012;2023-03-15T05:19:49;1.70;96.30
8226;DHT22;4154;48.810;9.012;2023-03-15T05:22:16;1.70;96.40
8226;DHT22;4154;48.810;9.012;2023-03-15T05:24:43;1.70;96.30
8226;DHT22;4154;48.810;9.012;2023-03-15T05:27:09;1.60;99.90
8226;DHT22;4154;48.810;9.012;2023-03-15T05:32:03;1.60;96.00
8226;DHT22;4154;48.810;9.012;2023-03-15T05:34:30;1.60;96.10
8226;DHT22;4154;48.810;9.012;2023-03-15T05:39:23;1.60;96.10
8226;DHT22;4154;48.810;9.012;2023-03-15T05:58:52;1.50;96.20
8226;DHT22;4154;48.810;9.012;2023-03-15T06:01:17;1.50;96.40
8226;DHT22;4154;48.810;9.012;2023-03-15T06:06:09;1.60;96.10
8226;DHT22;4154;48.810;9.012;2023-03-15T06:08:35;1.60;96.20
8226;DHT22;4154;48.810;9.012;2023-03-15T06:11:01;1.60;96.10
8226;DHT22;4154;48.810;9.012;2023-03-15T06:13:27;1.70;96.10
8226;DHT22;4154;48.810;9.012;2023-03-15T06:15:52;1.60;96.20
8226;DHT22;4154;48.810;9.012;2023-03-15T06:18:18;1.70;96.30
8226;DHT22;4154;48.810;9.012;2023-03-15T06:20:43;1.70;96.30
8226;DHT22;4154;48.810;9.012;2023-03-15T06:23:09;1.80;96.30
8226;DHT22;4154;48.810;9.012;2023-03-15T06:25:36;1.90;96.00
8226;DHT22;4154;48.810;9.012;2023-03-15T06:30:27;1.90;95.80
8226;DHT22;4154;48.810;9.012;2023-03-15T06:37:46;2.00;99.90
8226;DHT22;4154;48.810;9.012;2023-03-15T06:40:13;2.10;95.40
8226;DHT22;4154;48.810;9.012;2023-03-15T06:42:39;2.10;95.50
8226;DHT22;4154;48.810;9.012;2023-03-15T06:45:07;2.20;95.40
8226;DHT22;4154;48.810;9.012;2023-03-15T06:47:34;2.20;95.20
8226;DHT22;4154;48.810;9.012;2023-03-15T06:54:52;2.40;95.10
8226;DHT22;4154;48.810;9.012;2023-03-15T06:59:44;2.40;95.10
8226;DHT22;4154;48.810;9.012;2023-03-15T07:02:15;2.50;95.30
8226;DHT22;4154;48.810;9.012;2023-03-15T07:07:10;2.50;99.90
8226;DHT22;4154;48.810;9.012;2023-03-15T07:09:36;2.50;95.20
8226;DHT22;4154;48.810;9.012;2023-03-15T07:12:03;2.50;95.20
8226;DHT22;4154;48.810;9.012;2023-03-15T07:14:29;2.60;95.10
8226;DHT22;4154;48.810;9.012;2023-03-15T07:26:39;2.70;94.80
8226;DHT22;4154;48.810;9.012;2023-03-15T07:33:57;3.00;94.90
8226;DHT22;4154;48.810;9.012;2023-03-15T07:38:48;3.10;94.70
8226;DHT22;4154;48.810;9.012;2023-03-15T07:41:14;3.20;95.00
8226;DHT22;4154;48.810;9.012;2023-03-15T07:43:40;3.30;94.40
8226;DHT22;4154;48.810;9.012;2023-03-15T07:46:05;3.30;94.40
8226;DHT22;4154;48.810;9.012;2023-03-15T07:48:32;3.30;94.70
8226;DHT22;4154;48.810;9.012;2023-03-15T07:50:57;3.40;94.40
8226;DHT22;4154;48.810;9.012;2023-03-15T07:53:23;3.50;94.10
8226;DHT22;4154;48.810;9.012;2023-03-15T08:10:27;3.70;92.80
8226;DHT22;4154;48.810;9.012;2023-03-15T08:12:52;3.80;93.10
8226;DHT22;4154;48.810;9.012;2023-03-15T08:15:18;3.80;93.00
8226;DHT22;4154;48.810;9.012;2023-03-15T08:17:46;3.80;92.90
8226;DHT22;4154;48.810;9.012;2023-03-15T08:20:13;3.80;93.10
8226;DHT22;4154;48.810;9.012;2023-03-15T08:22:45;3.90;93.10
8226;DHT22;4154;48.810;9.012;2023-03-15T08:25:14;3.90;93.00
8226;DHT22;4154;48.810;9.012;2023-03-15T08:27:41;4.00;93.00
8226;DHT22;4154;48.810;9.012;2023-03-15T08:30:08;4.10;92.80
8226;DHT22;4154;48.810;9.012;2023-03-15T08:32:37;4.10;92.90
8226;DHT22;4154;48.810;9.012;2023-03-15T08:35:04;4.20;93.00
8226;DHT22;4154;48.810;9.012;2023-03-15T08:37:31;4.30;92.90
8226;DHT22;4154;48.810;9.012;2023-03-15T08:39:57;4.40;92.80
8226;DHT22;4154;48.810;9.012;2023-03-15T08:49:50;4.80;91.50
8226;DHT22;4154;48.810;9.012;2023-03-15T08:52:19;4.80;91.40
8226;DHT22;4154;48.810;9.012;2023-03-15T08:54:46;4.80;91.40
8226;DHT22;4154;48.810;9.012;2023-03-15T09:02:06;5.00;91.30
8226;DHT22;4154;48.810;9.012;2023-03-15T09:04:33;5.00;91.60
8226;DHT22;4154;48.810;9.012;2023-03-15T09:06:58;5.30;96.60
8226;DHT22;4154;48.810;9.012;2023-03-15T09:09:24;5.10;91.10
8226;DHT22;4154;48.810;9.012;2023-03-15T09:11:50;5.20;90.60
8226;DHT22;4154;48.810;9.012;2023-03-15T09:14:15;5.20;90.30
8226;DHT22;4154;48.810;9.012;2023-03-15T09:16:41;5.10;88.50
8226;DHT22;4154;48.810;9.012;2023-03-15T09:19:07;5.10;88.90
8226;DHT22;4154;48.810;9.012;2023-03-15T09:23:58;5.20;87.70
8226;DHT22;4154;48.810;9.012;2023-03-15T09:26:24;5.30;88.80
8226;DHT22;4154;48.810;9.012;2023-03-15T09:28:49;5.30;88.60
8226;DHT22;4154;48.810;9.012;2023-03-15T09:33:42;5.40;87.50
8226;DHT22;4154;48.810;9.012;2023-03-15T09:38:36;5.50;88.40
8226;DHT22;4154;48.810;9.012;2023-03-15T09:41:02;5.60;89.10
8226;DHT22;4154;48.810;9.012;2023-03-15T09:54:54;6.00;86.70
8226;DHT22;4154;48.810;9.012;2023-03-15T09:57:42;6.10;85.60
8226;DHT22;4154;48.810;9.012;2023-03-15T10:00:19;6.20;87.40
8226;DHT22;4154;48.810;9.012;2023-03-15T10:03:00;6.40;86.90
8226;DHT22;4154;48.810;9.012;2023-03-15T10:05:44;6.40;87.60
8226;DHT22;4154;48.810;9.012;2023-03-15T10:08:17;6.50;88.00
8226;DHT22;4154;48.810;9.012;2023-03-15T10:14:16;6.70;87.00
8226;DHT22;4154;48.810;9.012;2023-03-15T10:17:12;6.80;93.90
8226;DHT22;4154;48.810;9.012;2023-03-15T10:19:52;6.70;86.90
8226;DHT22;4154;48.810;9.012;2023-03-15T10:25:31;6.80;86.70
8226;DHT22;4154;48.810;9.012;2023-03-15T10:28:09;7.00;93.50
8226;DHT22;4154;48.810;9.012;2023-03-15T10:30:39;6.90;93.90
8226;DHT22;4154;48.810;9.012;2023-03-15T10:33:15;7.00;87.00
8226;DHT22;4154;48.810;9.012;2023-03-15T10:36:01;7.10;83.80
8226;DHT22;4154;48.810;9.012;2023-03-15T10:38:35;7.10;84.00
8226;DHT22;4154;48.810;9.012;2023-03-15T10:41:05;7.10;84.60
8226;DHT22;4154;48.810;9.012;2023-03-15T10:43:33;7.20;85.20
8226;DHT22;4154;48.810;9.012;2023-03-15T10:46:06;7.20;86.10
8226;DHT22;4154;48.810;9.012;2023-03-15T10:48:57;7.20;84.90
8226;DHT22;4154;48.810;9.012;2023-03-15T10:51:30;7.30;84.70
8226;DHT22;4154;48.810;9.012;2023-03-15T10:56:54;7.30;84.90
8226;DHT22;4154;48.810;9.012;2023-03-15T10:59:26;7.20;79.80
8226;DHT22;4154;48.810;9.012;2023-03-15T11:04:49;7.00;78.50
8226;DHT22;4154;48.810;9.012;2023-03-15T11:07:24;7.00;78.80
8226;DHT22;4154;48.810;9.012;2023-03-15T11:09:52;7.00;77.90
8226;DHT22;4154;48.810;9.012;2023-03-15T11:12:28;6.90;77.90
8226;DHT22;4154;48.810;9.012;2023-03-15T11:15:02;6.80;88.90
8226;DHT22;4154;48.810;9.012;2023-03-15T11:17:34;6.70;76.70
8226;DHT22;4154;48.810;9.012;2023-03-15T11:20:28;6.80;76.70
8226;DHT22;4154;48.810;9.012;2023-03-15T11:22:57;6.70;76.70
8226;DHT22;4154;48.810;9.012;2023-03-15T11:25:30;6.70;77.80
8226;DHT22;4154;48.810;9.012;2023-03-15T11:27:58;6.70;77.00
8226;DHT22;4154;48.810;9.012;2023-03-15T11:30:31;6.80;77.80
8226;DHT22;4154;48.810;9.012;2023-03-15T11:33:05;7.60;78.40
8226;DHT22;4154;48.810;9.012;2023-03-15T11:35:37;6.70;75.90
8226;DHT22;4154;48.810;9.012;2023-03-15T11:38:17;6.60;76.60
8226;DHT22;4154;48.810;9.012;2023-03-15T11:40:59;6.60;77.50
8226;DHT22;4154;48.810;9.012;2023-03-15T11:46:32;6.60;77.10
8226;DHT22;4154;48.810;9.012;2023-03-15T11:49:14;6.50;77.90
8226;DHT22;4154;48.810;9.012;2023-03-15T11:51:44;6.50;78.30
8226;DHT22;4154;48.810;9.012;2023-03-15T11:54:18;6.50;91.10
8226;DHT22;4154;48.810;9.012;2023-03-15T11:56:49;6.50;80.30
8226;DHT22;4154;48.810;9.012;2023-03-15T11:59:27;6.50;80.20
8226;DHT22;4154;48.810;9.012;2023-03-15T12:02:50;6.60;81.20
8226;DHT22;4154;48.810;9.012;2023-03-15T12:04:54;6.60;79.60
8226;DHT22;4154;48.810;9.012;2023-03-15T12:09:54;6.80;80.10
8226;DHT22;4154;48.810;9.012;2023-03-15T12:17:53;7.00;81.10
8226;DHT22;4154;48.810;9.012;2023-03-15T12:20:31;7.00;80.40
8226;DHT22;4154;48.810;9.012;2023-03-15T12:23:30;7.10;81.00
8226;DHT22;4154;48.810;9.012;2023-03-15T12:31:00;7.10;81.30
8226;DHT22;4154;48.810;9.012;2023-03-15T12:33:30;7.10;82.60
8226;DHT22;4154;48.810;9.012;2023-03-15T12:36:00;7.20;82.50
8226;DHT22;4154;48.810;9.012;2023-03-15T12:38:37;7.10;81.90
8226;DHT22;4154;48.810;9.012;2023-03-15T12:41:09;7.10;82.10
8226;DHT22;4154;48.810;9.012;2023-03-15T12:44:26;7.00;82.60
8226;DHT22;4154;48.810;9.012;2023-03-15T12:47:08;6.90;92.40
8226;DHT22;4154;48.810;9.012;2023-03-15T12:49:42;6.90;83.60
8226;DHT22;4154;48.810;9.012;2023-03-15T12:54:44;6.90;85.00
8226;DHT22;4154;48.810;9.012;2023-03-15T12:57:20;6.70;85.70
8226;DHT22;4154;48.810;9.012;2023-03-15T13:02:58;6.40;90.00
8226;DHT22;4154;48.810;9.012;2023-03-15T13:09:02;6.30;91.40
8226;DHT22;4154;48.810;9.012;2023-03-15T13:11:43;6.40;91.40
8226;DHT22;4154;48.810;9.012;2023-03-15T13:20:28;6.50;91.70
8226;DHT22;4154;48.810;9.012;2023-03-15T13:23:21;6.40;91.50
8226;DHT22;4154;48.810;9.012;2023-03-15T13:28:46;6.30;91.10
8226;DHT22;4154;48.810;9.012;2023-03-15T13:33:50;6.10;91.90
8226;DHT22;4154;48.810;9.012;2023-03-15T13:42:26;5.60;93.80
8226;DHT22;4154;48.810;9.012;2023-03-15T13:45:11;5.50;94.30
8226;DHT22;4154;48.810;9.012;2023-03-15T13:47:42;5.40;94.50
8226;DHT22;4154;48.810;9.012;2023-03-15T13:50:18;5.20;95.00
8226;DHT22;4154;48.810;9.012;2023-03-15T13:52:46;5.10;95.80
8226;DHT22;4154;48.810;9.012;2023-03-15T13:55:15;5.00;96.20
8226;DHT22;4154;48.810;9.012;2023-03-15T13:57:53;5.00;96.50
8226;DHT22;4154;48.810;9.012;2023-03-15T14:00:21;4.90;96.60
8226;DHT22;4154;48.810;9.012;2023-03-15T14:02:52;4.80;97.00
8226;DHT22;4154;48.810;9.012;2023-03-15T14:05:33;4.80;97.20
8226;DHT22;4154;48.810;9.012;2023-03-15T14:08:21;4.90;97.60
8226;DHT22;4154;48.810;9.012;2023-03-15T14:11:11;5.00;98.10
8226;DHT22;4154;48.810;9.012;2023-03-15T14:13:52;5.20;98.50
8226;DHT22;4154;48.810;9.012;2023-03-15T14:16:41;5.40;98.70
8226;DHT22;4154;48.810;9.012;2023-03-15T14:19:18;5.50;98.60
8226;DHT22;4154;48.810;9.012;2023-03-15T14:22:00;5.60;97.80
8226;DHT22;4154;48.810;9.012;2023-03-15T14:24:37;5.70;97.80
8226;DHT22;4154;48.810;9.012;2023-03-15T14:27:14;6.00;99.90
8226;DHT22;4154;48.810;9.012;2023-03-15T14:32:37;6.20;97.60
8226;DHT22;4154;48.810;9.012;2023-03-15T14:35:23;6.30;97.10
8226;DHT22;4154;48.810;9.012;2023-03-15T14:40:32;6.20;96.30
8226;DHT22;4154;48.810;9.012;2023-03-15T14:43:03;6.30;96.20
8226;DHT22;4154;48.810;9.012;2023-03-15T14:45:31;6.30;96.10
8226;DHT22;4154;48.810;9.012;2023-03-15T14:48:06;6.10;95.70
8226;DHT22;4154;48.810;9.012;2023-03-15T14:50:39;5.90;96.20
8226;DHT22;4154;48.810;9.012;2023-03-15T14:53:08;5.50;96.70
8226;DHT22;4154;48.810;9.012;2023-03-15T14:55:41;5.50;96.90
8226;DHT22;4154;48.810;9.012;2023-03-15T14:58:13;5.40;96.90
8226;DHT22;4154;48.810;9.012;2023-03-15T15:00:49;5.00;97.20
8226;DHT22;4154;48.810;9.012;2023-03-15T15:06:06;4.90;97.40
8226;DHT22;4154;48.810;9.012;2023-03-15T15:08:36;4.60;97.60
8226;DHT22;4154;48.810;9.012;2023-03-15T15:11:04;4.60;97.80
8226;DHT22;4154;48.810;9.012;2023-03-15T15:13:33;4.50;97.90
8226;DHT22;4154;48.810;9.012;2023-03-15T15:15:59;4.30;97.70
8226;DHT22;4154;48.810;9.012;2023-03-15T15:18:28;3.70;99.90
8226;DHT22;4154;48.810;9.012;2023-03-15T15:20:59;3.80;97.90
8226;DHT22;4154;48.810;9.012;2023-03-15T15:23:29;3.80;98.20
8226;DHT22;4154;48.810;9.012;2023-03-15T15:25:59;3.70;98.50
8226;DHT22;4154;48.810;9.012;2023-03-15T15:28:28;3.70;98.80
8226;DHT22;4154;48.810;9.012;2023-03-15T15:30:55;3.60;98.90
8226;DHT22;4154;48.810;9.012;2023-03-15T15:33:21;3.60;99.30
8226;DHT22;4154;48.810;9.012;2023-03-15T15:35:54;3.50;99.30
8226;DHT22;4154;48.810;9.012;2023-03-15T15:38:29;3.70;99.40
8226;DHT22;4154;48.810;9.012;2023-03-15T15:40:59;3.70;99.50
8226;DHT22;4154;48.810;9.012;2023-03-15T15:43:24;3.60;99.70
8226;DHT22;4154;48.810;9.012;2023-03-15T15:50:42;3.70;99.60
8226;DHT22;4154;48.810;9.012;2023-03-15T15:53:15;3.80;99.80
8226;DHT22;4154;48.810;9.012;2023-03-15T15:55:41;3.80;99.90
8226;DHT22;4154;48.810;9.012;2023-03-15T15:58:10;3.90;99.90
8226;DHT22;4154;48.810;9.012;2023-03-15T16:00:37;4.00;99.90
8226;DHT22;4154;48.810;9.012;2023-03-15T16:03:11;4.20;99.90
8226;DHT22;4154;48.810;9.012;2023-03-15T16:05:40;4.20;99.90
8226;DHT22;4154;48.810;9.012;2023-03-15T16:08:21;4.40;99.90
8226;DHT22;4154;48.810;9.012;2023-03-15T16:10:48;4.40;99.90
8226;DHT22;4154;48.810;9.012;2023-03-15T16:13:15;4.50;99.90
8226;DHT22;4154;48.810;9.012;2023-03-15T16:15:40;4.50;99.90
8226;DHT22;4154;48.810;9.012;2023-03-15T16:18:10;4.50;99.90
8226;DHT22;4154;48.810;9.012;2023-03-15T16:20:38;4.50;99.90
8226;DHT22;4154;48.810;9.012;2023-03-15T16:23:04;4.50;99.90
8226;DHT22;4154;48.810;9.012;2023-03-15T16:25:34;4.50;99.90
8226;DHT22;4154;48.810;9.012;2023-03-15T16:28:01;4.60;99.90
8226;DHT22;4154;48.810;9.012;2023-03-15T16:30:30;4.60;99.50
8226;DHT22;4154;48.810;9.012;2023-03-15T16:35:29;4.60;99.50
8226;DHT22;4154;48.810;9.012;2023-03-15T16:37:57;4.40;99.90
8226;DHT22;4154;48.810;9.012;2023-03-15T16:40:32;4.50;99.70
8226;DHT22;4154;48.810;9.012;2023-03-15T16:42:59;4.60;99.90
8226;DHT22;4154;48.810;9.012;2023-03-15T16:45:26;4.50;99.90
8226;DHT22;4154;48.810;9.012;2023-03-15T16:47:52;4.50;99.90
8226;DHT22;4154;48.810;9.012;2023-03-15T16:50:20;4.60;99.90
8226;DHT22;4154;48.810;9.012;2023-03-15T16:52:49;4.70;99.90
8226;DHT22;4154;48.810;9.012;2023-03-15T16:55:23;4.70;99.90
8226;DHT22;4154;48.810;9.012;2023-03-15T16:57:50;4.70;99.90
8226;DHT22;4154;48.810;9.012;2023-03-15T17:00:17;4.70;99.90
8226;DHT22;4154;48.810;9.012;2023-03-15T17:02:46;4.80;99.90
8226;DHT22;4154;48.810;9.012;2023-03-15T17:05:14;4.80;99.90
8226;DHT22;4154;48.810;9.012;2023-03-15T17:07:45;4.80;99.90
8226;DHT22;4154;48.810;9.012;2023-03-15T17:12:54;4.70;99.90
8226;DHT22;4154;48.810;9.012;2023-03-15T17:15:24;4.60;99.70
8226;DHT22;4154;48.810;9.012;2023-03-15T17:17:52;4.60;99.90
8226;DHT22;4154;48.810;9.012;2023-03-15T17:20:18;4.60;99.90
8226;DHT22;4154;48.810;9.012;2023-03-15T17:22:54;4.60;99.90
8226;DHT22;4154;48.810;9.012;2023-03-15T17:25:23;4.60;99.90
8226;DHT22;4154;48.810;9.012;2023-03-15T17:27:49;4.60;99.90
8226;DHT22;4154;48.810;9.012;2023-03-15T17:30:22;4.50;99.90
8226;DHT22;4154;48.810;9.012;2023-03-15T17:32:59;4.50;99.90
8226;DHT22;4154;48.810;9.012;2023-03-15T17:35:32;4.50;99.90
8226;DHT22;4154;48.810;9.012;2023-03-15T17:38:02;4.50;99.90
8226;DHT22;4154;48.810;9.012;2023-03-15T17:40:31;4.40;99.90
8226;DHT22;4154;48.810;9.012;2023-03-15T17:43:00;4.40;99.90
8226;DHT22;4154;48.810;9.012;2023-03-15T17:45:30;4.40;99.90
8226;DHT22;4154;48.810;9.012;2023-03-15T17:47:58;4.40;99.90
8226;DHT22;4154;48.810;9.012;2023-03-15T17:50:26;4.40;99.90
8226;DHT22;4154;48.810;9.012;2023-03-15T17:52:57;4.30;99.90
8226;DHT22;4154;48.810;9.012;2023-03-15T17:55:28;4.30;99.90
8226;DHT22;4154;48.810;9.012;2023-03-15T17:57:55;2.00;99.90
8226;DHT22;4154;48.810;9.012;2023-03-15T18:00:22;4.20;99.90
8226;DHT22;4154;48.810;9.012;2023-03-15T18:02:49;4.20;99.90
8226;DHT22;4154;48.810;9.012;2023-03-15T18:05:18;4.20;99.90
8226;DHT22;4154;48.810;9.012;2023-03-15T18:07:46;4.10;99.90
8226;DHT22;4154;48.810;9.012;2023-03-15T18:10:15;4.10;99.90
8226;DHT22;4154;48.810;9.012;2023-03-15T18:12:47;4.20;99.90
8226;DHT22;4154;48.810;9.012;2023-03-15T18:15:16;4.20;99.90
8226;DHT22;4154;48.810;9.012;2023-03-15T18:17:45;4.10;99.90
8226;DHT22;4154;48.810;9.012;2023-03-15T18:20:12;4.00;99.90
8226;DHT22;4154;48.810;9.012;2023-03-15T18:22:40;4.10;99.90
8226;DHT22;4154;48.810;9.012;2023-03-15T18:25:11;4.10;99.90
8226;DHT22;4154;48.810;9.012;2023-03-15T18:27:42;4.10;99.90
8226;DHT22;4154;48.810;9.012;2023-03-15T18:30:10;4.10;99.90
8226;DHT22;4154;48.810;9.012;2023-03-15T18:32:37;4.10;99.90
8226;DHT22;4154;48.810;9.012;2023-03-15T18:35:03;4.00;99.90
8226;DHT22;4154;48.810;9.012;2023-03-15T18:47:13;3.80;99.90
8226;DHT22;4154;48.810;9.012;2023-03-15T18:49:39;3.80;99.90
8226;DHT22;4154;48.810;9.012;2023-03-15T18:52:05;3.80;99.90
8226;DHT22;4154;48.810;9.012;2023-03-15T18:59:23;3.80;99.90
8226;DHT22;4154;48.810;9.012;2023-03-15T19:01:48;3.80;99.90
8226;DHT22;4154;48.810;9.012;2023-03-15T19:04:14;3.80;99.90
8226;DHT22;4154;48.810;9.012;2023-03-15T19:06:40;3.70;99.90
8226;DHT22;4154;48.810;9.012;2023-03-15T19:09:05;3.70;99.90
8226;DHT22;4154;48.810;9.012;2023-03-15T19:11:31;3.60;99.90
8226;DHT22;4154;48.810;9.012;2023-03-15T19:13:58;3.60;99.90
8226;DHT22;4154;48.810;9.012;2023-03-15T19:16:23;3.50;99.90
8226;DHT22;4154;48.810;9.012;2023-03-15T19:18:50;3.50;99.90
8226;DHT22;4154;48.810;9.012;2023-03-15T19:21:18;3.60;99.90
8226;DHT22;4154;48.810;9.012;2023-03-15T19:23:45;3.60;99.90
8226;DHT22;4154;48.810;9.012;2023-03-15T19:26:11;3.60;99.90
8226;DHT22;4154;48.810;9.012;2023-03-15T19:28:38;3.60;99.90
8226;DHT22;4154;48.810;9.012;2023-03-15T19:31:05;3.60;99.90
8226;DHT22;4154;48.810;9.012;2023-03-15T19:33:31;3.60;99.90
8226;DHT22;4154;48.810;9.012;2023-03-15T19:35:58;3.60;99.90
8226;DHT22;4154;48.810;9.012;2023-03-15T19:38:26;3.60;99.90
8226;DHT22;4154;48.810;9.012;2023-03-15T19:40:52;3.60;99.90
8226;DHT22;4154;48.810;9.012;2023-03-15T19:43:24;3.60;99.90
8226;DHT22;4154;48.810;9.012;2023-03-15T19:45:52;3.60;99.90
8226;DHT22;4154;48.810;9.012;2023-03-15T19:48:18;3.60;99.90
8226;DHT22;4154;48.810;9.012;2023-03-15T19:50:46;3.60;99.90
8226;DHT22;4154;48.810;9.012;2023-03-15T19:53:12;3.60;99.90
8226;DHT22;4154;48.810;9.012;2023-03-15T19:55:37;3.60;99.90
8226;DHT22;4154;48.810;9.012;2023-03-15T19:58:03;3.50;99.90
8226;DHT22;4154;48.810;9.012;2023-03-15T20:02:55;3.40;99.90
8226;DHT22;4154;48.810;9.012;2023-03-15T20:05:21;3.40;99.90
8226;DHT22;4154;48.810;9.012;2023-03-15T20:07:49;3.40;99.90
8226;DHT22;4154;48.810;9.012;2023-03-15T20:10:16;3.30;99.90
8226;DHT22;4154;48.810;9.012;2023-03-15T20:15:11;3.20;99.90
8226;DHT22;4154;48.810;9.012;2023-03-15T20:17:38;3.20;99.90
8226;DHT22;4154;48.810;9.012;2023-03-15T20:20:05;3.20;99.90
8226;DHT22;4154;48.810;9.012;2023-03-15T20:22:35;3.20;99.90
8226;DHT22;4154;48.810;9.012;2023-03-15T20:25:01;3.20;99.90
8226;DHT22;4154;48.810;9.012;2023-03-15T20:27:31;3.20;99.90
8226;DHT22;4154;48.810;9.012;2023-03-15T20:29:58;3.10;99.90
8226;DHT22;4154;48.810;9.012;2023-03-15T20:32:24;3.10;99.90
8226;DHT22;4154;48.810;9.012;2023-03-15T20:34:50;3.00;99.90
8226;DHT22;4154;48.810;9.012;2023-03-15T20:37:25;3.00;99.90
8226;DHT22;4154;48.810;9.012;2023-03-15T20:39:52;3.00;99.90
8226;DHT22;4154;48.810;9.012;2023-03-15T20:42:20;3.00;99.90
8226;DHT22;4154;48.810;9.012;2023-03-15T20:44:47;2.90;99.90
8226;DHT22;4154;48.810;9.012;2023-03-15T20:47:12;2.90;99.90
8226;DHT22;4154;48.810;9.012;2023-03-15T20:49:38;2.90;99.90
8226;DHT22;4154;48.810;9.012;2023-03-15T20:52:05;2.80;99.90
8226;DHT22;4154;48.810;9.012;2023-03-15T20:54:30;2.80;99.90
8226;DHT22;4154;48.810;9.012;2023-03-15T20:56:56;2.50;99.90
8226;DHT22;4154;48.810;9.012;2023-03-15T20:59:22;2.70;99.90
8226;DHT22;4154;48.810;9.012;2023-03-15T21:01:48;2.60;99.80
8226;DHT22;4154;48.810;9.012;2023-03-15T21:04:13;2.60;99.90
8226;DHT22;4154;48.810;9.012;2023-03-15T21:06:40;2.60;99.90
8226;DHT22;4154;48.810;9.012;2023-03-15T21:09:05;2.50;99.90
8226;DHT22;4154;48.810;9.012;2023-03-15T21:11:31;2.50;99.90
8226;DHT22;4154;48.810;9.012;2023-03-15T21:13:57;2.40;99.90
8226;DHT22;4154;48.810;9.012;2023-03-15T21:16:23;2.30;99.90
8226;DHT22;4154;48.810;9.012;2023-03-15T21:18:48;2.30;99.90
8226;DHT22;4154;48.810;9.012;2023-03-15T21:21:19;2.30;99.90
8226;DHT22;4154;48.810;9.012;2023-03-15T21:23:45;2.30;99.90
8226;DHT22;4154;48.810;9.012;2023-03-15T21:26:12;2.30;99.90
8226;DHT22;4154;48.810;9.012;2023-03-15T21:28:39;2.20;99.90